Time;durP1;ratioP1;P1;durP2;ratioP2;P2;SDS_P1;SDS_P2;PMS_P1;PMS_P2;Temp;Humidity;BMP_temperature;BMP_pressure;BME280_temperature;BME280_humidity;BME280_pressure;Samples;Min_cycle;Max_cycle;Signal;HPM_P1;HPM_P2
2021/11/25 00:01:49;;;;;;;40.20;20.38;;;1.90;70.80;;;;;;4630915;28;20087;-72
2021/11/25 00:04:06;;;;;;;42.58;21.30;;;1.90;70.90;;;;;;4611421;28;20140;-72
2021/11/25 00:06:27;;;;;;;42.95;21.10;;;1.90;70.90;;;;;;4612898;28;20045;-72
2021/11/25 00:08:44;;;;;;;41.85;21.15;;;1.80;70.80;;;;;;4629439;28;20076;-72
2021/11/25 00:11:01;;;;;;;39.45;20.13;;;1.80;70.90;;;;;;4612748;28;20046;-73
2021/11/25 00:13:18;;;;;;;37.75;19.65;;;1.80;70.90;;;;;;4629302;28;20044;-72
2021/11/25 00:15:34;;;;;;;39.25;20.77;;;1.80;70.90;;;;;;4630590;28;20075;-72
2021/11/25 00:17:51;;;;;;;41.30;21.05;;;1.80;71.60;;;;;;4629810;28;20053;-72
2021/11/25 00:20:10;;;;;;;37.47;19.05;;;1.80;70.90;;;;;;4612360;28;20083;-73
2021/11/25 00:22:27;;;;;;;41.65;20.33;;;1.80;71.00;;;;;;4630001;28;20453;-73
2021/11/25 00:24:43;;;;;;;37.90;19.33;;;1.80;71.00;;;;;;4611851;28;20369;-73
2021/11/25 00:27:03;;;;;;;47.17;23.90;;;1.70;70.80;;;;;;4627930;28;20488;-73
2021/11/25 00:29:20;;;;;;;43.83;20.88;;;1.70;70.90;;;;;;4617734;28;20061;-72
2021/11/25 00:31:36;;;;;;;42.13;18.55;;;1.70;71.00;;;;;;4629867;28;20427;-72
2021/11/25 00:33:53;;;;;;;38.70;19.90;;;1.70;71.00;;;;;;4647815;28;20072;-72
2021/11/25 00:36:09;;;;;;;40.15;20.33;;;1.70;71.10;;;;;;4648759;28;20072;-72
2021/11/25 00:38:26;;;;;;;40.08;19.25;;;1.60;71.20;;;;;;4646263;28;20442;-72
2021/11/25 00:40:45;;;;;;;44.05;20.27;;;1.60;71.20;;;;;;4649019;28;20497;-72
2021/11/25 00:43:03;;;;;;;41.92;20.90;;;1.60;71.30;;;;;;4628885;28;20084;-72
2021/11/25 00:45:20;;;;;;;41.45;19.20;;;1.60;71.40;;;;;;4631145;28;20127;-72
2021/11/25 00:47:38;;;;;;;41.17;19.73;;;1.60;71.30;;;;;;4629748;28;20052;-72
2021/11/25 00:49:55;;;;;;;36.30;19.75;;;1.60;71.30;;;;;;4648460;28;20824;-72
2021/11/25 00:52:11;;;;;;;39.55;18.98;;;1.60;71.30;;;;;;4647372;28;20080;-72
2021/11/25 00:54:28;;;;;;;41.88;20.55;;;1.60;71.30;;;;;;4630686;28;20045;-72
2021/11/25 00:56:45;;;;;;;41.85;21.23;;;1.60;71.30;;;;;;4629730;28;20119;-72
2021/11/25 00:59:03;;;;;;;43.72;21.65;;;1.60;71.40;;;;;;4648447;28;20044;-72
2021/11/25 01:01:19;;;;;;;41.92;19.55;;;1.60;71.50;;;;;;4629879;28;20131;-72
2021/11/25 01:03:36;;;;;;;38.45;19.33;;;1.60;71.40;;;;;;4648474;28;20498;-72
2021/11/25 01:05:52;;;;;;;39.95;18.85;;;1.60;71.30;;;;;;4630039;28;20052;-72
2021/11/25 01:08:09;;;;;;;35.38;18.73;;;1.60;71.30;;;;;;4632723;28;20406;-73
2021/11/25 01:10:25;;;;;;;43.60;19.13;;;1.60;71.30;;;;;;4633609;28;20064;-74
2021/11/25 01:12:43;;;;;;;41.60;20.35;;;1.60;71.30;;;;;;4651131;28;20049;-74
2021/11/25 01:15:00;;;;;;;42.92;20.27;;;1.60;71.40;;;;;;4651612;28;20048;-73
2021/11/25 01:17:17;;;;;;;37.90;18.73;;;1.60;71.40;;;;;;4650589;28;20076;-72
2021/11/25 01:19:33;;;;;;;39.30;19.27;;;1.50;71.30;;;;;;4651863;28;20159;-73
2021/11/25 01:21:50;;;;;;;36.75;19.23;;;1.60;71.40;;;;;;4650524;28;20051;-73
2021/11/25 01:24:06;;;;;;;38.67;19.63;;;1.50;71.40;;;;;;4634011;28;20119;-72
2021/11/25 01:26:25;;;;;;;37.83;19.27;;;1.50;71.50;;;;;;4632418;28;20116;-72
2021/11/25 01:28:41;;;;;;;37.80;19.05;;;1.50;71.40;;;;;;4650321;28;20044;-72
2021/11/25 01:31:02;;;;;;;38.05;18.63;;;1.50;71.50;;;;;;4631771;28;20139;-72
2021/11/25 01:33:19;;;;;;;33.58;17.42;;;1.50;71.50;;;;;;4651529;28;20048;-74
2021/11/25 01:35:36;;;;;;;39.28;18.77;;;1.50;71.50;;;;;;4632534;28;20526;-73
2021/11/25 01:37:53;;;;;;;39.47;19.85;;;1.50;71.50;;;;;;4633412;28;20075;-72
2021/11/25 01:40:12;;;;;;;39.17;20.20;;;1.50;71.50;;;;;;4650511;28;20048;-73
2021/11/25 01:42:29;;;;;;;37.20;18.98;;;1.50;71.50;;;;;;4633145;28;20115;-72
2021/11/25 01:44:45;;;;;;;41.45;20.38;;;1.50;71.50;;;;;;4648781;28;20495;-73
2021/11/25 01:47:04;;;;;;;37.88;18.63;;;1.50;71.50;;;;;;4631515;28;20192;-72
2021/11/25 01:49:21;;;;;;;39.85;19.70;;;1.60;71.50;;;;;;4649830;28;20047;-72
2021/11/25 01:51:38;;;;;;;38.05;18.17;;;1.60;72.20;;;;;;4631293;28;20053;-72
2021/11/25 01:53:55;;;;;;;39.30;19.65;;;1.70;71.40;;;;;;4632951;28;20503;-72
2021/11/25 01:56:12;;;;;;;39.83;18.60;;;1.70;71.30;;;;;;4631229;28;20123;-72
2021/11/25 01:58:28;;;;;;;37.65;19.40;;;1.80;71.20;;;;;;4650316;28;20082;-72
2021/11/25 02:00:48;;;;;;;37.03;18.65;;;1.80;71.00;;;;;;4649808;28;20483;-72
2021/11/25 02:03:07;;;;;;;43.45;20.70;;;1.80;71.00;;;;;;4649914;28;20059;-72
2021/11/25 02:05:24;;;;;;;35.13;18.55;;;1.90;71.10;;;;;;4649688;28;20048;-72
2021/11/25 02:07:40;;;;;;;38.40;18.90;;;1.90;71.10;;;;;;4630966;28;20047;-72
2021/11/25 02:09:57;;;;;;;35.60;17.85;;;1.90;71.10;;;;;;4647747;28;20064;-72
2021/11/25 02:12:13;;;;;;;42.58;19.35;;;1.90;70.90;;;;;;4630916;28;20092;-71
2021/11/25 02:14:30;;;;;;;33.80;19.13;;;2.00;70.90;;;;;;4629629;28;20045;-73
2021/11/25 02:16:50;;;;;;;32.92;18.27;;;2.00;70.90;;;;;;4649569;28;20498;-74
2021/11/25 02:19:08;;;;;;;38.78;18.73;;;2.00;70.90;;;;;;4629633;28;20176;-73
2021/11/25 02:21:27;;;;;;;38.70;18.42;;;2.10;70.80;;;;;;4649509;28;20045;-74
2021/11/25 02:23:44;;;;;;;34.97;17.83;;;2.10;70.80;;;;;;4650128;28;20048;-73
2021/11/25 02:26:01;;;;;;;38.40;18.80;;;2.10;70.80;;;;;;4632063;28;20588;-74
2021/11/25 02:28:21;;;;;;;42.28;20.27;;;2.10;70.80;;;;;;4632500;28;20045;-74
2021/11/25 02:30:38;;;;;;;38.03;18.40;;;2.10;70.80;;;;;;4631760;28;20041;-73
2021/11/25 02:32:54;;;;;;;35.53;18.48;;;2.20;70.90;;;;;;4650446;28;20110;-73
2021/11/25 02:35:14;;;;;;;38.72;18.90;;;2.20;71.70;;;;;;4649114;28;20548;-73
2021/11/25 02:37:31;;;;;;;39.42;19.67;;;2.20;71.70;;;;;;4632765;28;20053;-73
2021/11/25 02:39:48;;;;;;;40.92;19.77;;;2.30;71.00;;;;;;4630932;28;20079;-73
2021/11/25 02:42:05;;;;;;;34.40;18.95;;;2.30;71.00;;;;;;4650610;28;20090;-73
2021/11/25 02:44:22;;;;;;;36.78;19.08;;;2.30;71.00;;;;;;4631009;28;20059;-73
2021/11/25 02:46:39;;;;;;;35.17;19.33;;;2.40;71.80;;;;;;4632230;28;20115;-73
2021/11/25 02:48:58;;;;;;;33.95;19.02;;;2.40;71.10;;;;;;4649003;28;20052;-75
2021/11/25 02:51:18;;;;;;;39.70;20.10;;;2.40;71.00;;;;;;4650155;28;20056;-74
2021/11/25 02:53:38;;;;;;;37.65;20.23;;;2.50;71.10;;;;;;4649044;28;20724;-74
2021/11/25 02:55:55;;;;;;;38.70;19.30;;;2.50;71.00;;;;;;4650047;28;20048;-73
2021/11/25 02:58:12;;;;;;;39.08;19.50;;;2.50;71.80;;;;;;4649327;28;20044;-74
2021/11/25 03:00:32;;;;;;;38.88;19.98;;;2.50;71.00;;;;;;4631799;28;20092;-74
2021/11/25 03:02:54;;;;;;;36.60;19.67;;;2.60;71.10;;;;;;4631938;28;20118;-74
2021/11/25 03:05:11;;;;;;;38.65;19.30;;;2.60;71.10;;;;;;4631574;28;20376;-74
2021/11/25 03:07:30;;;;;;;38.10;19.38;;;2.60;71.10;;;;;;4649878;28;20451;-74
2021/11/25 03:09:48;;;;;;;41.55;19.17;;;2.60;71.10;;;;;;4630850;28;20487;-74
2021/11/25 03:12:05;;;;;;;40.42;20.52;;;2.70;71.20;;;;;;4632217;28;20048;-74
2021/11/25 03:14:22;;;;;;;39.50;20.23;;;2.70;71.30;;;;;;4630601;28;20635;-74
2021/11/25 03:16:39;;;;;;;38.95;18.70;;;2.70;71.20;;;;;;4650043;28;20056;-74
2021/11/25 03:18:55;;;;;;;36.90;19.45;;;2.70;71.20;;;;;;4648358;28;20052;-73
2021/11/25 03:21:15;;;;;;;40.83;20.23;;;2.80;71.20;;;;;;4631704;28;20535;-73
2021/11/25 03:23:33;;;;;;;38.72;19.33;;;2.80;71.40;;;;;;4648511;28;20491;-73
2021/11/25 03:25:52;;;;;;;38.78;20.05;;;2.80;71.20;;;;;;4648692;28;20054;-73
2021/11/25 03:28:11;;;;;;;37.03;19.30;;;2.80;71.20;;;;;;4648203;28;20067;-74
2021/11/25 03:30:28;;;;;;;37.03;20.45;;;2.80;71.30;;;;;;4648220;28;20056;-74
2021/11/25 03:32:47;;;;;;;40.40;19.90;;;2.90;71.40;;;;;;4631152;28;20446;-74
2021/11/25 03:35:04;;;;;;;36.92;19.35;;;2.90;71.50;;;;;;4649116;28;20439;-74
2021/11/25 03:37:20;;;;;;;40.05;20.67;;;2.90;71.40;;;;;;4631091;28;20321;-74
2021/11/25 03:39:39;;;;;;;42.00;21.70;;;2.90;71.40;;;;;;4630998;28;20072;-74
2021/11/25 03:41:57;;;;;;;39.28;20.25;;;3.00;71.50;;;;;;4649182;28;20185;-74
2021/11/25 03:44:14;;;;;;;37.05;19.48;;;3.00;71.50;;;;;;4630569;28;20412;-74
2021/11/25 03:46:33;;;;;;;37.47;19.42;;;3.00;71.50;;;;;;4649399;28;20048;-74
2021/11/25 03:48:49;;;;;;;38.95;19.58;;;3.10;71.50;;;;;;4630227;28;20383;-74
2021/11/25 03:51:10;;;;;;;34.20;18.42;;;3.10;71.40;;;;;;4630699;28;20032;-74
2021/11/25 03:53:27;;;;;;;40.72;19.92;;;3.10;71.50;;;;;;4647812;28;20061;-74
2021/11/25 03:55:44;;;;;;;37.25;19.75;;;3.10;71.50;;;;;;4630822;28;20483;-76
2021/11/25 03:58:02;;;;;;;41.92;21.17;;;3.20;71.60;;;;;;4629398;28;20044;-75
2021/11/25 04:00:20;;;;;;;43.28;22.25;;;3.20;71.60;;;;;;4649592;28;20044;-75
2021/11/25 04:02:41;;;;;;;42.20;22.17;;;3.20;71.70;;;;;;4647283;28;20149;-74
2021/11/25 04:04:57;;;;;;;40.95;20.63;;;3.20;71.70;;;;;;4647309;28;20393;-75
2021/11/25 04:07:14;;;;;;;38.80;20.65;;;3.20;71.70;;;;;;4646203;28;20032;-75
2021/11/25 04:09:31;;;;;;;40.08;21.67;;;3.30;71.70;;;;;;4647468;28;20068;-74
2021/11/25 04:11:47;;;;;;;40.10;20.55;;;3.30;71.80;;;;;;4646771;28;20044;-74
2021/11/25 04:14:05;;;;;;;41.05;20.88;;;3.30;71.70;;;;;;4628928;28;20147;-74
2021/11/25 04:16:22;;;;;;;42.17;21.27;;;3.30;71.70;;;;;;4647648;28;20497;-75
2021/11/25 04:18:41;;;;;;;43.95;20.77;;;3.40;71.80;;;;;;4647984;28;20410;-75
2021/11/25 04:20:58;;;;;;;38.85;21.58;;;3.40;71.80;;;;;;4648850;28;20106;-75
2021/11/25 04:23:14;;;;;;;41.55;21.67;;;3.40;71.80;;;;;;4630188;28;20073;-73
2021/11/25 04:25:33;;;;;;;42.72;21.55;;;3.40;71.80;;;;;;4649211;28;20044;-72
2021/11/25 04:27:49;;;;;;;44.60;22.23;;;3.40;71.90;;;;;;4647704;28;20737;-73
2021/11/25 04:30:11;;;;;;;45.05;21.40;;;3.50;71.90;;;;;;4631310;28;20073;-72
2021/11/25 04:37:38;;;;;;;42.83;21.65;;;3.50;72.10;;;;;;4630189;28;20069;-73
2021/11/25 04:39:55;;;;;;;41.72;22.85;;;3.60;72.20;;;;;;4648627;28;20122;-73
2021/11/25 04:42:11;;;;;;;40.30;21.98;;;3.60;72.20;;;;;;4649337;28;20048;-72
2021/11/25 04:44:29;;;;;;;42.90;23.10;;;3.60;72.20;;;;;;4634002;28;20106;-74
2021/11/25 04:46:49;;;;;;;46.90;24.42;;;3.60;72.20;;;;;;4634162;28;20498;-73
2021/11/25 04:49:06;;;;;;;49.55;26.45;;;3.60;72.30;;;;;;4651682;28;20045;-74
2021/11/25 04:51:22;;;;;;;51.67;28.48;;;3.70;72.40;;;;;;4634624;28;20061;-74
2021/11/25 04:53:42;;;;;;;54.33;27.02;;;3.70;72.50;;;;;;4651173;28;20080;-74
2021/11/25 04:55:58;;;;;;;54.38;28.20;;;3.70;72.60;;;;;;4634945;28;20430;-74
2021/11/25 04:58:18;;;;;;;48.17;25.90;;;3.70;72.70;;;;;;4632949;28;20467;-74
2021/11/25 05:00:36;;;;;;;47.95;25.13;;;3.80;72.80;;;;;;4634574;28;20072;-74
2021/11/25 05:02:55;;;;;;;46.67;25.05;;;3.80;72.80;;;;;;4651204;28;20495;-75
2021/11/25 05:05:12;;;;;;;44.03;23.48;;;3.90;72.80;;;;;;4652381;28;20072;-74
2021/11/25 05:07:28;;;;;;;46.08;24.73;;;3.90;72.80;;;;;;4633004;28;20049;-74
2021/11/25 05:09:44;;;;;;;47.78;25.20;;;3.90;72.80;;;;;;4652090;28;20053;-74
2021/11/25 05:12:04;;;;;;;51.35;26.27;;;3.90;72.80;;;;;;4633172;28;20049;-74
2021/11/25 05:14:21;;;;;;;50.08;25.85;;;4.00;72.80;;;;;;4634003;28;20079;-75
2021/11/25 05:16:37;;;;;;;49.80;26.50;;;4.00;72.90;;;;;;4651280;28;20124;-74
2021/11/25 05:18:55;;;;;;;49.83;26.40;;;4.00;72.90;;;;;;4633613;28;20087;-74
2021/11/25 05:21:12;;;;;;;46.53;25.58;;;4.00;72.90;;;;;;4633558;28;20049;-73
2021/11/25 05:23:31;;;;;;;46.40;25.40;;;4.10;73.00;;;;;;4651273;28;20044;-73
2021/11/25 05:25:48;;;;;;;49.30;24.60;;;4.10;73.00;;;;;;4633541;28;20072;-72
2021/11/25 05:28:04;;;;;;;48.95;25.95;;;4.10;73.00;;;;;;4650763;28;20040;-72
2021/11/25 05:30:22;;;;;;;53.17;27.65;;;4.10;73.00;;;;;;4651726;28;20044;-73
2021/11/25 05:32:38;;;;;;;50.03;25.92;;;4.10;73.00;;;;;;4632252;28;20087;-73
2021/11/25 05:34:58;;;;;;;50.28;26.45;;;4.20;73.20;;;;;;4634112;28;20474;-73
2021/11/25 05:37:16;;;;;;;48.00;26.73;;;4.20;74.00;;;;;;4632422;28;20064;-73
2021/11/25 05:39:32;;;;;;;48.25;26.83;;;4.20;73.90;;;;;;4633808;28;20072;-73
2021/11/25 05:41:49;;;;;;;47.92;25.25;;;4.30;73.20;;;;;;4632371;28;20075;-73
2021/11/25 05:44:06;;;;;;;52.03;26.88;;;4.30;73.30;;;;;;4651656;28;20052;-74
2021/11/25 05:46:23;;;;;;;48.53;25.88;;;4.30;73.20;;;;;;4632353;28;20092;-72
2021/11/25 05:48:39;;;;;;;53.08;26.88;;;4.30;73.30;;;;;;4651388;28;20375;-72
2021/11/25 05:50:57;;;;;;;51.70;26.55;;;4.30;73.30;;;;;;4650355;28;20056;-72
2021/11/25 05:53:18;;;;;;;46.88;24.95;;;4.30;73.30;;;;;;4650557;28;20086;-74
2021/11/25 05:55:34;;;;;;;51.28;27.42;;;4.40;73.40;;;;;;4650242;28;20136;-74
2021/11/25 05:57:51;;;;;;;50.55;26.20;;;4.40;73.40;;;;;;4651030;28;20051;-74
2021/11/25 06:00:11;;;;;;;50.42;26.58;;;4.40;73.40;;;;;;4632792;28;20076;-74
2021/11/25 06:02:30;;;;;;;53.33;26.40;;;4.40;73.40;;;;;;4651026;28;20048;-74
2021/11/25 06:04:49;;;;;;;50.50;26.48;;;4.50;73.40;;;;;;4651147;28;20045;-73
2021/11/25 06:07:07;;;;;;;49.90;26.65;;;4.50;73.30;;;;;;4632077;28;20514;-74
2021/11/25 06:09:26;;;;;;;49.25;26.80;;;4.50;73.40;;;;;;4633202;28;20494;-73
2021/11/25 06:11:42;;;;;;;52.63;27.90;;;4.50;73.40;;;;;;4649720;28;20132;-73
2021/11/25 06:13:58;;;;;;;50.28;25.52;;;4.60;73.40;;;;;;4651286;28;20504;-73
2021/11/25 06:16:15;;;;;;;53.63;27.63;;;4.60;73.40;;;;;;4649583;28;20055;-73
2021/11/25 06:18:31;;;;;;;51.83;27.30;;;4.60;73.40;;;;;;4650993;28;20048;-73
2021/11/25 06:20:48;;;;;;;51.65;26.38;;;4.60;73.40;;;;;;4649586;28;20135;-73
2021/11/25 06:23:08;;;;;;;51.78;26.45;;;4.70;73.40;;;;;;4632997;28;20498;-74
2021/11/25 06:25:26;;;;;;;49.63;26.42;;;4.70;74.20;;;;;;4631850;28;20052;-74
2021/11/25 06:27:43;;;;;;;53.58;27.42;;;4.70;73.40;;;;;;4632545;28;20173;-74
2021/11/25 06:30:03;;;;;;;51.10;25.95;;;4.70;73.30;;;;;;4649612;28;20058;-73
2021/11/25 06:32:20;;;;;;;50.30;26.83;;;4.80;73.40;;;;;;4650307;28;20051;-71
2021/11/25 06:34:37;;;;;;;53.53;26.55;;;4.80;73.40;;;;;;4631858;28;20064;-72
2021/11/25 06:36:53;;;;;;;50.95;27.40;;;4.80;74.10;;;;;;4631996;28;20041;-72
2021/11/25 06:39:11;;;;;;;52.33;25.75;;;4.80;73.20;;;;;;4650031;28;20059;-73
2021/11/25 06:41:27;;;;;;;53.85;27.75;;;4.90;73.20;;;;;;4631712;28;20084;-73
2021/11/25 06:43:46;;;;;;;49.35;26.92;;;4.90;73.20;;;;;;4632243;28;20446;-72
2021/11/25 06:46:04;;;;;;;50.83;25.80;;;4.90;73.20;;;;;;4649256;28;20520;-73
2021/11/25 06:48:21;;;;;;;53.47;25.40;;;4.90;73.20;;;;;;4650171;28;20122;-72
2021/11/25 06:50:37;;;;;;;49.35;26.25;;;4.90;73.10;;;;;;4630916;28;20506;-73
2021/11/25 06:52:55;;;;;;;47.90;25.13;;;5.00;73.10;;;;;;4650017;28;20056;-73
2021/11/25 06:55:13;;;;;;;50.00;26.30;;;5.00;73.10;;;;;;4630546;28;20045;-70
2021/11/25 06:57:32;;;;;;;53.88;27.25;;;5.00;73.10;;;;;;4632421;28;20041;-74
2021/11/25 06:59:48;;;;;;;54.47;25.67;;;5.00;73.00;;;;;;4630969;28;20048;-76
2021/11/25 07:02:05;;;;;;;53.92;27.35;;;5.10;73.00;;;;;;4632114;28;20621;-74
2021/11/25 07:04:22;;;;;;;49.33;25.92;;;5.10;72.90;;;;;;4647665;28;20113;-73
2021/11/25 07:06:38;;;;;;;58.00;27.35;;;5.10;72.90;;;;;;4629876;28;20044;-73
2021/11/25 07:08:54;;;;;;;49.90;25.35;;;5.10;72.90;;;;;;4628623;28;20048;-73
2021/11/25 07:11:12;;;;;;;50.15;26.52;;;5.10;72.80;;;;;;4629459;28;20053;-73
2021/11/25 07:13:29;;;;;;;50.75;26.63;;;5.20;72.90;;;;;;4646993;28;20044;-73
2021/11/25 07:15:46;;;;;;;50.78;25.45;;;5.20;72.90;;;;;;4647646;28;20079;-73
2021/11/25 07:18:05;;;;;;;50.25;25.75;;;5.20;72.80;;;;;;4629526;28;20474;-73
2021/11/25 07:20:21;;;;;;;52.35;26.90;;;5.20;72.80;;;;;;4648440;28;20064;-73
2021/11/25 07:22:39;;;;;;;50.50;26.63;;;5.20;72.70;;;;;;4631553;28;20065;-74
2021/11/25 07:24:55;;;;;;;61.50;27.65;;;5.30;72.70;;;;;;4648828;28;20048;-74
2021/11/25 07:27:13;;;;;;;44.38;24.63;;;5.30;72.60;;;;;;4631700;28;20124;-73
2021/11/25 07:29:29;;;;;;;54.67;26.92;;;5.30;72.60;;;;;;4648684;28;20064;-73
2021/11/25 07:31:46;;;;;;;49.95;25.23;;;5.30;72.60;;;;;;4649986;28;20442;-74
2021/11/25 07:34:03;;;;;;;52.13;27.77;;;5.40;72.50;;;;;;4648459;28;20675;-73
2021/11/25 07:36:20;;;;;;;50.22;27.50;;;5.40;72.50;;;;;;4649716;28;20064;-73
2021/11/25 07:38:36;;;;;;;49.83;26.15;;;5.40;72.40;;;;;;4648280;28;20062;-74
2021/11/25 07:40:52;;;;;;;50.85;26.23;;;5.50;72.40;;;;;;4631856;28;20096;-73
2021/11/25 07:43:11;;;;;;;49.92;25.40;;;5.50;72.40;;;;;;4648239;28;20076;-73
2021/11/25 07:45:32;;;;;;;49.60;26.85;;;5.50;72.40;;;;;;4631515;28;20635;-73
2021/11/25 07:47:48;;;;;;;55.58;27.80;;;5.50;72.40;;;;;;4630436;28;20045;-73
2021/11/25 07:50:09;;;;;;;50.45;26.92;;;5.50;72.30;;;;;;4649110;28;20048;-74
2021/11/25 07:52:25;;;;;;;55.72;28.50;;;5.50;72.40;;;;;;4648329;28;20529;-73
2021/11/25 07:54:44;;;;;;;54.80;28.25;;;5.50;72.20;;;;;;4631040;28;20132;-73
2021/11/25 07:57:01;;;;;;;51.03;26.67;;;5.50;72.10;;;;;;4630738;28;20049;-73
2021/11/25 07:59:23;;;;;;;54.13;28.00;;;5.50;72.30;;;;;;4648592;28;20040;-74
2021/11/25 08:01:41;;;;;;;47.78;25.90;;;5.60;72.40;;;;;;4649104;28;20048;-72
2021/11/25 08:03:58;;;;;;;48.50;25.95;;;5.50;72.20;;;;;;4648240;28;20084;-73
2021/11/25 08:06:15;;;;;;;50.47;26.02;;;5.60;72.20;;;;;;4649326;28;20040;-72
2021/11/25 08:08:33;;;;;;;54.20;27.02;;;5.60;72.30;;;;;;4629754;28;20056;-72
2021/11/25 08:10:53;;;;;;;55.95;26.98;;;5.60;72.10;;;;;;4649435;28;20068;-73
2021/11/25 08:13:12;;;;;;;51.85;26.35;;;5.60;72.10;;;;;;4629885;28;20056;-72
2021/11/25 08:15:30;;;;;;;50.83;26.52;;;5.60;72.10;;;;;;4631564;28;20483;-73
2021/11/25 08:17:46;;;;;;;50.08;25.17;;;5.60;72.10;;;;;;4629375;28;20155;-73
2021/11/25 08:20:03;;;;;;;54.25;26.05;;;5.70;72.10;;;;;;4648964;28;20106;-71
2021/11/25 08:22:21;;;;;;;50.33;26.20;;;5.70;72.00;;;;;;4629954;28;20518;-72
2021/11/25 08:24:41;;;;;;;55.83;27.08;;;5.80;72.00;;;;;;4630934;28;20056;-72
2021/11/25 08:26:58;;;;;;;46.65;26.02;;;5.80;71.90;;;;;;4648134;28;20067;-72
2021/11/25 08:29:14;;;;;;;51.28;26.63;;;5.80;71.80;;;;;;4648664;28;20048;-72
2021/11/25 08:31:32;;;;;;;50.83;26.85;;;5.90;71.80;;;;;;4648418;28;20138;-72
2021/11/25 08:33:51;;;;;;;51.85;26.50;;;5.90;71.60;;;;;;4630444;28;20040;-72
2021/11/25 08:36:07;;;;;;;50.13;25.38;;;6.00;71.60;;;;;;4648529;28;20391;-71
2021/11/25 08:38:28;;;;;;;54.00;27.42;;;6.00;71.50;;;;;;4630071;28;20480;-74
2021/11/25 08:40:45;;;;;;;47.05;25.92;;;6.00;71.50;;;;;;4630943;28;20762;-72
2021/11/25 08:43:01;;;;;;;49.45;25.80;;;6.00;71.40;;;;;;4647638;28;20051;-72
2021/11/25 08:45:21;;;;;;;51.10;25.90;;;6.10;71.40;;;;;;4631159;28;20069;-73
2021/11/25 08:47:39;;;;;;;50.33;25.52;;;6.10;71.40;;;;;;4629366;28;20049;-72
2021/11/25 08:49:55;;;;;;;52.08;26.20;;;6.20;71.30;;;;;;4648694;28;20048;-73
2021/11/25 08:52:11;;;;;;;47.22;27.30;;;6.20;71.30;;;;;;4647419;28;20087;-72
2021/11/25 08:54:28;;;;;;;44.70;24.27;;;6.20;71.10;;;;;;4630886;28;20474;-72
2021/11/25 08:56:45;;;;;;;48.50;25.65;;;6.30;71.10;;;;;;4629435;28;20049;-72
2021/11/25 08:59:01;;;;;;;48.20;25.50;;;6.30;71.00;;;;;;4630786;28;20444;-72
2021/11/25 09:01:18;;;;;;;45.85;24.60;;;6.30;71.00;;;;;;4629521;28;20065;-71
2021/11/25 09:03:36;;;;;;;48.85;26.05;;;6.30;71.00;;;;;;4648703;28;20399;-72
2021/11/25 09:05:53;;;;;;;52.50;26.73;;;6.40;70.90;;;;;;4629931;28;20460;-73
2021/11/25 09:08:09;;;;;;;48.05;26.63;;;6.40;70.80;;;;;;4630468;28;20037;-72
2021/11/25 09:10:28;;;;;;;48.63;25.67;;;6.40;70.60;;;;;;4647690;28;20052;-71
2021/11/25 09:12:48;;;;;;;49.85;26.38;;;6.40;70.50;;;;;;4630117;28;20080;-73
2021/11/25 09:15:12;;;;;;;52.83;27.10;;;6.40;70.60;;;;;;4648213;28;20098;-71
2021/11/25 09:17:32;;;;;;;52.30;25.67;;;6.50;70.50;;;;;;4647645;28;20048;-72
2021/11/25 09:20:12;;;;;;;51.17;26.92;;;6.40;70.40;;;;;;4648792;28;20079;-72
2021/11/25 09:22:30;;;;;;;53.10;25.60;;;6.40;70.60;;;;;;4647454;28;20098;-70
2021/11/25 09:24:47;;;;;;;52.05;26.63;;;6.50;70.80;;;;;;4630762;28;20128;-71
2021/11/25 09:27:05;;;;;;;47.10;24.90;;;6.50;70.70;;;;;;4647260;28;20064;-72
2021/11/25 09:29:21;;;;;;;47.67;25.55;;;6.60;70.60;;;;;;4649611;28;20048;-73
2021/11/25 09:31:38;;;;;;;49.33;24.60;;;6.60;70.50;;;;;;4632709;28;20045;-70
2021/11/25 09:33:56;;;;;;;50.95;25.90;;;6.70;70.40;;;;;;4651609;28;20072;-73
2021/11/25 09:36:14;;;;;;;50.47;26.63;;;6.70;70.40;;;;;;4650777;28;20053;-70
2021/11/25 09:38:33;;;;;;;52.55;26.95;;;6.80;70.40;;;;;;4651276;28;20102;-69
2021/11/25 09:40:50;;;;;;;47.28;25.17;;;6.80;70.20;;;;;;4650848;28;20072;-71
2021/11/25 09:43:10;;;;;;;49.97;26.15;;;6.90;70.10;;;;;;4632961;28;20523;-71
2021/11/25 09:45:28;;;;;;;48.88;25.67;;;6.90;69.90;;;;;;4633143;28;20064;-73
2021/11/25 09:47:47;;;;;;;46.95;25.30;;;6.90;69.90;;;;;;4632430;28;20487;-74
2021/11/25 09:50:04;;;;;;;49.42;24.60;;;7.00;70.00;;;;;;4633479;28;20073;-74
2021/11/25 09:52:22;;;;;;;46.30;24.23;;;7.00;70.00;;;;;;4650020;28;20418;-73
2021/11/25 09:54:39;;;;;;;47.60;24.98;;;7.00;70.00;;;;;;4633684;28;20513;-73
2021/11/25 09:56:55;;;;;;;47.47;25.75;;;7.10;70.00;;;;;;4649904;28;20135;-72
2021/11/25 09:59:11;;;;;;;46.42;25.23;;;7.10;70.00;;;;;;4651584;28;20044;-73
2021/11/25 10:01:28;;;;;;;45.00;24.58;;;7.20;69.90;;;;;;4632158;28;20077;-72
2021/11/25 10:03:49;;;;;;;53.30;26.98;;;7.20;69.80;;;;;;4633444;28;20442;-73
2021/11/25 10:06:05;;;;;;;51.53;25.92;;;7.20;69.70;;;;;;4632024;28;20060;-72
2021/11/25 10:08:30;;;;;;;48.83;26.52;;;7.30;69.80;;;;;;4633077;28;20045;-74
2021/11/25 10:10:50;;;;;;;49.80;26.90;;;7.30;69.80;;;;;;4632150;28;20056;-72
2021/11/25 10:13:14;;;;;;;45.67;24.70;;;7.30;69.60;;;;;;4631458;28;20068;-73
2021/11/25 10:15:34;;;;;;;49.03;26.63;;;7.40;69.60;;;;;;4649986;28;20071;-72
2021/11/25 10:17:52;;;;;;;45.88;26.33;;;7.40;69.50;;;;;;4649294;28;20063;-71
2021/11/25 10:20:10;;;;;;;57.85;32.47;;;7.40;69.60;;;;;;4650599;28;20055;-71
2021/11/25 10:22:26;;;;;;;63.40;33.60;;;7.50;69.60;;;;;;4631973;28;20069;-77
2021/11/25 10:24:48;;;;;;;49.35;25.80;;;7.50;69.60;;;;;;4631566;28;20438;-73
2021/11/25 10:27:14;;;;;;;50.38;24.95;;;7.60;69.30;;;;;;4631426;28;20481;-71
2021/11/25 10:29:31;;;;;;;53.95;25.90;;;7.60;69.30;;;;;;4633116;28;20061;-71
2021/11/25 10:31:47;;;;;;;53.33;27.17;;;7.60;69.20;;;;;;4631219;28;20451;-70
2021/11/25 10:34:08;;;;;;;47.28;25.60;;;7.70;69.20;;;;;;4632675;28;20385;-70
2021/11/25 10:36:33;;;;;;;51.55;25.90;;;7.70;69.00;;;;;;4649345;28;20074;-72
2021/11/25 10:39:04;;;;;;;49.17;27.63;;;7.80;68.90;;;;;;4650394;28;20410;-70
2021/11/25 10:41:23;;;;;;;48.22;25.48;;;7.80;68.90;;;;;;4649271;28;20067;-73
2021/11/25 10:43:40;;;;;;;52.50;27.10;;;7.80;68.70;;;;;;4649873;28;20056;-75
2021/11/25 10:45:57;;;;;;;51.80;27.10;;;7.90;68.60;;;;;;4650004;28;20041;-74
2021/11/25 10:48:25;;;;;;;48.22;26.25;;;7.90;68.50;;;;;;4649351;28;20052;-74
2021/11/25 10:50:41;;;;;;;45.63;24.88;;;7.90;68.50;;;;;;4632218;28;20518;-74
2021/11/25 10:53:03;;;;;;;47.60;23.60;;;7.90;68.50;;;;;;4648153;28;20506;-73
2021/11/25 10:55:24;;;;;;;51.35;25.73;;;7.90;68.50;;;;;;4650590;28;20055;-73
2021/11/25 10:57:44;;;;;;;49.80;27.42;;;7.90;68.60;;;;;;4648813;28;20040;-74
2021/11/25 11:00:07;;;;;;;55.70;26.08;;;7.90;68.50;;;;;;4632189;28;20073;-74
2021/11/25 11:02:30;;;;;;;52.00;26.70;;;8.00;69.20;;;;;;4630845;28;20044;-74
2021/11/25 11:04:51;;;;;;;58.28;26.75;;;8.00;68.40;;;;;;4632184;28;20068;-74
2021/11/25 11:07:21;;;;;;;50.03;26.75;;;7.90;68.10;;;;;;4631175;28;20045;-74
2021/11/25 11:09:39;;;;;;;49.00;27.48;;;8.00;68.30;;;;;;4649299;28;20115;-73
2021/11/25 11:12:21;;;;;;;49.60;26.73;;;8.00;68.40;;;;;;4631471;28;20057;-73
2021/11/25 11:14:50;;;;;;;51.35;26.90;;;8.00;68.30;;;;;;4648621;28;20045;-72
2021/11/25 11:17:31;;;;;;;56.20;32.22;;;8.10;68.20;;;;;;4649916;28;20114;-74
2021/11/25 11:20:08;;;;;;;51.55;27.10;;;8.10;68.10;;;;;;4648335;28;20032;-74
2021/11/25 11:22:24;;;;;;;46.45;26.42;;;8.10;68.00;;;;;;4649271;28;20041;-73
2021/11/25 11:24:41;;;;;;;49.10;26.45;;;8.20;68.00;;;;;;4630740;28;20119;-72
2021/11/25 11:26:59;;;;;;;47.55;26.10;;;8.20;68.00;;;;;;4630272;28;20037;-72
2021/11/25 11:29:21;;;;;;;51.00;26.35;;;8.20;67.80;;;;;;4647590;28;20052;-72
2021/11/25 11:31:39;;;;;;;45.85;25.60;;;8.30;67.80;;;;;;4629906;28;20044;-73
2021/11/25 11:33:56;;;;;;;47.85;26.63;;;8.30;67.70;;;;;;4631389;28;20055;-73
2021/11/25 11:36:14;;;;;;;47.33;25.15;;;8.30;67.60;;;;;;4629196;28;20112;-73
2021/11/25 11:38:33;;;;;;;48.55;26.02;;;8.30;67.50;;;;;;4631757;28;20431;-74
2021/11/25 11:40:50;;;;;;;50.53;26.10;;;8.30;67.60;;;;;;4630097;28;20045;-73
2021/11/25 11:43:09;;;;;;;48.85;28.27;;;8.20;67.60;;;;;;4630940;28;20558;-73
2021/11/25 11:45:29;;;;;;;48.67;26.48;;;8.30;67.70;;;;;;4628081;28;20049;-73
2021/11/25 11:47:51;;;;;;;49.17;26.55;;;8.30;67.60;;;;;;4647510;28;20102;-74
2021/11/25 11:50:11;;;;;;;47.50;25.92;;;8.30;67.60;;;;;;4646039;28;20129;-73
2021/11/25 11:52:29;;;;;;;49.10;26.63;;;8.30;67.60;;;;;;4646218;28;20453;-72
2021/11/25 11:54:51;;;;;;;49.22;26.75;;;8.40;67.60;;;;;;4646371;28;20048;-73